sensor_id;sensor_type;location;lat;lon;timestamp;pressure;altitude;pressure_sealevel;temperature;humidity
13124;BME280;6627;50.920;12.050;2023-09-19T00:02:01;98698.06;;;26.59;53.42
13124;BME280;6627;50.920;12.050;2023-09-19T00:04:31;98679.66;;;25.43;55.65
13124;BME280;6627;50.920;12.050;2023-09-19T00:06:58;98693.94;;;25.41;55.52
13124;BME280;6627;50.920;12.050;2023-09-19T00:09:28;98689.81;;;25.85;54.93
13124;BME280;6627;50.920;12.050;2023-09-19T00:11:55;98674.41;;;25.77;54.34
13124;BME280;6627;50.920;12.050;2023-09-19T00:14:25;98717.78;;;26.75;53.08
13124;BME280;6627;50.920;12.050;2023-09-19T00:16:53;98703.00;;;26.33;53.56
13124;BME280;6627;50.920;12.050;2023-09-19T00:19:21;98656.44;;;26.00;53.17
13124;BME280;6627;50.920;12.050;2023-09-19T00:21:50;98698.91;;;25.89;54.65
13124;BME280;6627;50.920;12.050;2023-09-19T00:24:19;98682.22;;;25.93;54.64
13124;BME280;6627;50.920;12.050;2023-09-19T00:26:52;98682.88;;;26.15;53.93
13124;BME280;6627;50.920;12.050;2023-09-19T00:29:21;98674.75;;;25.83;54.08
13124;BME280;6627;50.920;12.050;2023-09-19T00:31:49;98665.09;;;26.09;53.65
13124;BME280;6627;50.920;12.050;2023-09-19T00:34:18;98678.44;;;26.25;52.89
13124;BME280;6627;50.920;12.050;2023-09-19T00:36:46;98662.66;;;26.18;52.45
13124;BME280;6627;50.920;12.050;2023-09-19T00:39:13;98636.97;;;26.03;51.88
13124;BME280;6627;50.920;12.050;2023-09-19T00:41:41;98605.84;;;25.67;52.24
13124;BME280;6627;50.920;12.050;2023-09-19T00:44:15;98650.97;;;25.85;52.94
13124;BME280;6627;50.920;12.050;2023-09-19T00:46:44;98659.16;;;26.07;52.43
13124;BME280;6627;50.920;12.050;2023-09-19T00:49:14;98647.72;;;25.98;52.15
13124;BME280;6627;50.920;12.050;2023-09-19T00:51:43;98687.88;;;26.90;50.87
13124;BME280;6627;50.920;12.050;2023-09-19T00:54:13;98633.88;;;26.42;50.91
13124;BME280;6627;50.920;12.050;2023-09-19T00:56:45;98615.47;;;25.45;52.93
13124;BME280;6627;50.920;12.050;2023-09-19T00:59:15;98641.53;;;25.61;52.91
13124;BME280;6627;50.920;12.050;2023-09-19T01:01:44;98657.47;;;26.20;51.61
13124;BME280;6627;50.920;12.050;2023-09-19T01:04:12;98655.91;;;26.71;50.54
13124;BME280;6627;50.920;12.050;2023-09-19T01:06:40;98626.91;;;26.72;49.84
13124;BME280;6627;50.920;12.050;2023-09-19T01:09:24;98618.91;;;26.29;50.29
13124;BME280;6627;50.920;12.050;2023-09-19T01:12:01;98577.34;;;25.63;51.25
13124;BME280;6627;50.920;12.050;2023-09-19T01:14:39;98585.19;;;25.82;50.57
13124;BME280;6627;50.920;12.050;2023-09-19T01:17:20;98602.03;;;25.36;51.94
13124;BME280;6627;50.920;12.050;2023-09-19T01:20:25;98631.31;;;25.51;52.23
13124;BME280;6627;50.920;12.050;2023-09-19T01:23:23;98620.19;;;25.55;51.66
13124;BME280;6627;50.920;12.050;2023-09-19T01:26:30;98635.78;;;26.04;50.96
13124;BME280;6627;50.920;12.050;2023-09-19T01:29:21;98579.97;;;25.04;52.07
13124;BME280;6627;50.920;12.050;2023-09-19T01:32:01;98661.97;;;26.00;51.22
13124;BME280;6627;50.920;12.050;2023-09-19T01:34:44;98641.56;;;25.58;51.79
13124;BME280;6627;50.920;12.050;2023-09-19T01:37:13;98629.25;;;25.66;51.48
13124;BME280;6627;50.920;12.050;2023-09-19T01:39:46;98639.09;;;25.81;51.32
13124;BME280;6627;50.920;12.050;2023-09-19T01:42:35;98639.63;;;26.21;50.35
13124;BME280;6627;50.920;12.050;2023-09-19T01:45:12;98640.66;;;25.86;50.71
13124;BME280;6627;50.920;12.050;2023-09-19T01:47:51;98676.34;;;26.47;50.03
13124;BME280;6627;50.920;12.050;2023-09-19T01:50:31;98645.53;;;25.57;51.08
13124;BME280;6627;50.920;12.050;2023-09-19T01:53:12;98664.47;;;25.76;51.46
13124;BME280;6627;50.920;12.050;2023-09-19T01:55:47;98629.59;;;25.82;50.17
13124;BME280;6627;50.920;12.050;2023-09-19T01:58:21;98632.00;;;25.70;50.59
13124;BME280;6627;50.920;12.050;2023-09-19T02:00:55;98664.88;;;25.67;50.98
13124;BME280;6627;50.920;12.050;2023-09-19T02:03:34;98627.47;;;25.20;51.46
13124;BME280;6627;50.920;12.050;2023-09-19T02:06:14;98632.81;;;25.63;50.74
13124;BME280;6627;50.920;12.050;2023-09-19T02:08:41;98639.19;;;25.63;50.61
13124;BME280;6627;50.920;12.050;2023-09-19T02:11:09;98592.66;;;25.12;51.01
13124;BME280;6627;50.920;12.050;2023-09-19T02:13:37;98691.81;;;25.81;50.73
13124;BME280;6627;50.920;12.050;2023-09-19T02:16:04;98684.06;;;26.17;50.10
13124;BME280;6627;50.920;12.050;2023-09-19T02:18:35;98660.16;;;25.68;50.73
13124;BME280;6627;50.920;12.050;2023-09-19T02:21:02;98712.63;;;26.18;50.45
13124;BME280;6627;50.920;12.050;2023-09-19T02:23:30;98639.22;;;25.53;50.53
13124;BME280;6627;50.920;12.050;2023-09-19T02:25:57;98661.38;;;25.63;50.70
13124;BME280;6627;50.920;12.050;2023-09-19T02:28:33;98689.84;;;25.82;50.76
13124;BME280;6627;50.920;12.050;2023-09-19T02:31:21;98672.97;;;26.14;49.79
13124;BME280;6627;50.920;12.050;2023-09-19T02:33:50;98587.16;;;24.90;51.06
13124;BME280;6627;50.920;12.050;2023-09-19T02:36:17;98649.94;;;25.44;50.79
13124;BME280;6627;50.920;12.050;2023-09-19T02:38:44;98689.31;;;26.05;49.89
13124;BME280;6627;50.920;12.050;2023-09-19T02:41:12;98684.69;;;26.43;49.20
13124;BME280;6627;50.920;12.050;2023-09-19T02:43:39;98690.53;;;25.97;50.00
13124;BME280;6627;50.920;12.050;2023-09-19T02:46:06;98634.31;;;25.85;49.26
13124;BME280;6627;50.920;12.050;2023-09-19T02:48:34;98652.97;;;25.81;49.72
13124;BME280;6627;50.920;12.050;2023-09-19T02:51:03;98661.84;;;26.21;49.19
13124;BME280;6627;50.920;12.050;2023-09-19T02:53:31;98716.84;;;25.63;51.16
13124;BME280;6627;50.920;12.050;2023-09-19T02:55:58;98654.38;;;25.30;50.87
13124;BME280;6627;50.920;12.050;2023-09-19T02:58:27;98588.03;;;24.59;51.49
13124;BME280;6627;50.920;12.050;2023-09-19T03:00:56;98655.25;;;24.70;52.34
13124;BME280;6627;50.920;12.050;2023-09-19T03:03:24;98692.03;;;25.06;52.30
13124;BME280;6627;50.920;12.050;2023-09-19T03:05:52;98621.25;;;24.52;52.27
13124;BME280;6627;50.920;12.050;2023-09-19T03:08:21;98699.56;;;25.02;52.40
13124;BME280;6627;50.920;12.050;2023-09-19T03:10:48;98682.00;;;25.52;51.14
13124;BME280;6627;50.920;12.050;2023-09-19T03:13:16;98634.66;;;24.85;51.91
13124;BME280;6627;50.920;12.050;2023-09-19T03:15:43;98653.50;;;25.48;50.72
13124;BME280;6627;50.920;12.050;2023-09-19T03:18:12;98675.56;;;25.76;50.40
13124;BME280;6627;50.920;12.050;2023-09-19T03:20:41;98674.63;;;24.88;52.40
13124;BME280;6627;50.920;12.050;2023-09-19T03:23:08;98711.38;;;26.26;49.57
13124;BME280;6627;50.920;12.050;2023-09-19T03:25:37;98680.97;;;26.05;49.59
13124;BME280;6627;50.920;12.050;2023-09-19T03:28:05;98670.38;;;26.48;48.33
13124;BME280;6627;50.920;12.050;2023-09-19T03:30:33;98660.69;;;26.11;48.81
13124;BME280;6627;50.920;12.050;2023-09-19T03:33:01;98672.50;;;26.26;48.67
13124;BME280;6627;50.920;12.050;2023-09-19T03:35:28;98648.22;;;25.82;49.39
13124;BME280;6627;50.920;12.050;2023-09-19T03:37:56;98648.28;;;25.64;49.88
13124;BME280;6627;50.920;12.050;2023-09-19T03:40:23;98642.34;;;25.58;49.68
13124;BME280;6627;50.920;12.050;2023-09-19T03:42:53;98638.34;;;25.63;49.51
13124;BME280;6627;50.920;12.050;2023-09-19T03:45:21;98677.81;;;26.03;48.83
13124;BME280;6627;50.920;12.050;2023-09-19T03:47:48;98677.50;;;26.49;48.10
13124;BME280;6627;50.920;12.050;2023-09-19T03:50:16;98661.19;;;25.99;48.88
13124;BME280;6627;50.920;12.050;2023-09-19T03:52:44;98644.72;;;25.60;49.64
13124;BME280;6627;50.920;12.050;2023-09-19T03:55:11;98650.28;;;25.56;49.88
13124;BME280;6627;50.920;12.050;2023-09-19T03:57:39;98619.44;;;25.51;49.75
13124;BME280;6627;50.920;12.050;2023-09-19T04:00:10;98686.69;;;25.69;50.26
13124;BME280;6627;50.920;12.050;2023-09-19T04:02:38;98673.13;;;25.92;49.11
13124;BME280;6627;50.920;12.050;2023-09-19T04:05:06;98683.50;;;25.71;50.29
13124;BME280;6627;50.920;12.050;2023-09-19T04:07:34;98673.97;;;25.75;49.96
13124;BME280;6627;50.920;12.050;2023-09-19T04:10:01;98672.50;;;25.53;50.25
13124;BME280;6627;50.920;12.050;2023-09-19T04:12:29;98642.59;;;24.76;51.56
13124;BME280;6627;50.920;12.050;2023-09-19T04:14:57;98713.00;;;24.97;52.33
13124;BME280;6627;50.920;12.050;2023-09-19T04:17:26;98665.16;;;24.78;52.15
13124;BME280;6627;50.920;12.050;2023-09-19T04:19:53;98729.66;;;24.82;52.60
13124;BME280;6627;50.920;12.050;2023-09-19T04:22:21;98714.19;;;24.99;51.92
13124;BME280;6627;50.920;12.050;2023-09-19T04:24:49;98690.88;;;24.61;52.28
13124;BME280;6627;50.920;12.050;2023-09-19T04:27:16;98689.28;;;24.60;52.19
13124;BME280;6627;50.920;12.050;2023-09-19T04:29:45;98663.91;;;24.01;53.41
13124;BME280;6627;50.920;12.050;2023-09-19T04:32:12;98710.59;;;24.13;53.96
13124;BME280;6627;50.920;12.050;2023-09-19T04:34:41;98704.19;;;23.95;53.85
13124;BME280;6627;50.920;12.050;2023-09-19T04:37:08;98740.63;;;24.11;54.32
13124;BME280;6627;50.920;12.050;2023-09-19T04:39:37;98722.88;;;24.26;53.33
13124;BME280;6627;50.920;12.050;2023-09-19T04:42:05;98726.41;;;24.23;53.41
13124;BME280;6627;50.920;12.050;2023-09-19T04:44:32;98772.00;;;24.58;53.61
13124;BME280;6627;50.920;12.050;2023-09-19T04:47:00;98740.63;;;24.11;54.02
13124;BME280;6627;50.920;12.050;2023-09-19T04:49:27;98742.94;;;23.87;54.88
13124;BME280;6627;50.920;12.050;2023-09-19T04:51:56;98762.75;;;24.11;54.44
13124;BME280;6627;50.920;12.050;2023-09-19T04:54:24;98753.31;;;24.33;53.58
13124;BME280;6627;50.920;12.050;2023-09-19T04:56:53;98748.22;;;24.39;53.49
13124;BME280;6627;50.920;12.050;2023-09-19T04:59:21;98751.22;;;23.95;54.55
13124;BME280;6627;50.920;12.050;2023-09-19T05:01:49;98766.69;;;23.96;54.92
13124;BME280;6627;50.920;12.050;2023-09-19T05:04:16;98784.28;;;24.71;53.25
13124;BME280;6627;50.920;12.050;2023-09-19T05:06:44;98749.75;;;24.19;54.03
13124;BME280;6627;50.920;12.050;2023-09-19T05:09:12;98773.91;;;24.32;54.10
13124;BME280;6627;50.920;12.050;2023-09-19T05:11:41;98767.59;;;24.42;53.54
13124;BME280;6627;50.920;12.050;2023-09-19T05:14:09;98754.19;;;24.77;52.34
13124;BME280;6627;50.920;12.050;2023-09-19T05:16:37;98703.84;;;24.10;52.97
13124;BME280;6627;50.920;12.050;2023-09-19T05:19:05;98758.75;;;23.98;54.27
13124;BME280;6627;50.920;12.050;2023-09-19T05:21:32;98774.69;;;24.36;53.24
13124;BME280;6627;50.920;12.050;2023-09-19T05:24:00;98756.06;;;24.30;53.26
13124;BME280;6627;50.920;12.050;2023-09-19T05:26:29;98762.78;;;24.18;53.66
13124;BME280;6627;50.920;12.050;2023-09-19T05:28:56;98755.69;;;24.24;53.31
13124;BME280;6627;50.920;12.050;2023-09-19T05:31:23;98773.56;;;24.52;53.08
13124;BME280;6627;50.920;12.050;2023-09-19T05:33:51;98728.00;;;24.24;52.65
13124;BME280;6627;50.920;12.050;2023-09-19T05:36:21;98806.41;;;24.78;52.79
13124;BME280;6627;50.920;12.050;2023-09-19T05:38:50;98747.06;;;24.94;51.87
13124;BME280;6627;50.920;12.050;2023-09-19T05:41:19;98771.63;;;25.06;51.57
13124;BME280;6627;50.920;12.050;2023-09-19T05:43:50;98786.63;;;25.44;51.16
13124;BME280;6627;50.920;12.050;2023-09-19T05:46:17;98774.00;;;25.29;51.18
13124;BME280;6627;50.920;12.050;2023-09-19T05:48:45;98778.72;;;25.42;50.54
13124;BME280;6627;50.920;12.050;2023-09-19T05:51:14;98768.44;;;24.97;51.77
13124;BME280;6627;50.920;12.050;2023-09-19T05:53:42;98746.25;;;24.47;52.66
13124;BME280;6627;50.920;12.050;2023-09-19T05:56:10;98781.88;;;24.73;52.41
13124;BME280;6627;50.920;12.050;2023-09-19T05:58:39;98798.91;;;24.57;52.85
13124;BME280;6627;50.920;12.050;2023-09-19T06:01:11;98804.00;;;24.41;53.58
13124;BME280;6627;50.920;12.050;2023-09-19T06:03:39;98821.50;;;24.99;52.38
13124;BME280;6627;50.920;12.050;2023-09-19T06:06:07;98776.34;;;24.73;52.46
13124;BME280;6627;50.920;12.050;2023-09-19T06:08:35;98832.56;;;24.77;53.19
13124;BME280;6627;50.920;12.050;2023-09-19T06:11:02;98799.28;;;24.56;53.40
13124;BME280;6627;50.920;12.050;2023-09-19T06:13:31;98877.34;;;25.22;52.60
13124;BME280;6627;50.920;12.050;2023-09-19T06:16:00;98838.91;;;24.88;52.78
13124;BME280;6627;50.920;12.050;2023-09-19T06:18:34;98850.03;;;25.24;52.20
13124;BME280;6627;50.920;12.050;2023-09-19T06:21:04;98838.13;;;25.31;51.88
13124;BME280;6627;50.920;12.050;2023-09-19T06:23:35;98876.94;;;25.70;51.28
13124;BME280;6627;50.920;12.050;2023-09-19T06:26:03;98846.03;;;25.54;51.37
13124;BME280;6627;50.920;12.050;2023-09-19T06:28:32;98853.97;;;25.45;51.59
13124;BME280;6627;50.920;12.050;2023-09-19T06:31:02;98885.66;;;25.54;51.57
13124;BME280;6627;50.920;12.050;2023-09-19T06:33:29;98920.13;;;25.92;51.53
13124;BME280;6627;50.920;12.050;2023-09-19T06:35:59;98884.88;;;25.82;51.39
13124;BME280;6627;50.920;12.050;2023-09-19T06:38:28;98922.03;;;26.24;50.91
13124;BME280;6627;50.920;12.050;2023-09-19T06:40:55;98919.13;;;27.30;48.16
13124;BME280;6627;50.920;12.050;2023-09-19T06:43:23;98884.69;;;27.58;47.28
13124;BME280;6627;50.920;12.050;2023-09-19T06:45:53;98782.16;;;26.66;48.02
13124;BME280;6627;50.920;12.050;2023-09-19T06:48:22;98876.31;;;27.20;47.95
13124;BME280;6627;50.920;12.050;2023-09-19T06:50:52;98889.84;;;28.04;46.16
13124;BME280;6627;50.920;12.050;2023-09-19T06:53:23;98799.16;;;27.28;46.42
13124;BME280;6627;50.920;12.050;2023-09-19T06:55:51;98780.84;;;26.19;48.50
13124;BME280;6627;50.920;12.050;2023-09-19T06:58:19;98757.69;;;25.56;49.55
13124;BME280;6627;50.920;12.050;2023-09-19T07:00:47;98786.38;;;26.19;47.84
13124;BME280;6627;50.920;12.050;2023-09-19T07:03:17;98732.44;;;26.20;46.66
13124;BME280;6627;50.920;12.050;2023-09-19T07:05:46;98762.50;;;26.32;46.55
13124;BME280;6627;50.920;12.050;2023-09-19T07:08:16;98711.78;;;26.25;45.78
13124;BME280;6627;50.920;12.050;2023-09-19T07:10:49;98702.38;;;26.08;45.76
13124;BME280;6627;50.920;12.050;2023-09-19T07:13:19;98681.16;;;26.35;44.92
13124;BME280;6627;50.920;12.050;2023-09-19T07:15:47;98593.38;;;25.23;45.54
13124;BME280;6627;50.920;12.050;2023-09-19T07:18:16;98696.34;;;26.76;43.78
13124;BME280;6627;50.920;12.050;2023-09-19T07:20:45;98622.56;;;26.71;42.80
13124;BME280;6627;50.920;12.050;2023-09-19T07:23:16;98633.63;;;26.75;43.02
13124;BME280;6627;50.920;12.050;2023-09-19T07:25:45;98623.38;;;27.06;42.36
13124;BME280;6627;50.920;12.050;2023-09-19T07:28:15;98646.59;;;27.26;42.40
13124;BME280;6627;50.920;12.050;2023-09-19T07:30:42;98658.22;;;27.52;41.83
13124;BME280;6627;50.920;12.050;2023-09-19T07:33:12;98669.47;;;27.41;42.26
13124;BME280;6627;50.920;12.050;2023-09-19T07:35:45;98721.44;;;27.85;42.26
13124;BME280;6627;50.920;12.050;2023-09-19T07:38:13;98587.09;;;26.82;41.80
13124;BME280;6627;50.920;12.050;2023-09-19T07:40:41;98544.81;;;26.64;41.74
13124;BME280;6627;50.920;12.050;2023-09-19T07:43:09;98600.84;;;26.59;42.35
13124;BME280;6627;50.920;12.050;2023-09-19T07:45:38;98646.03;;;27.04;41.69
13124;BME280;6627;50.920;12.050;2023-09-19T07:48:07;98635.94;;;26.83;42.02
13124;BME280;6627;50.920;12.050;2023-09-19T07:50:40;98634.28;;;27.27;41.06
13124;BME280;6627;50.920;12.050;2023-09-19T07:53:09;98600.22;;;26.78;41.31
13124;BME280;6627;50.920;12.050;2023-09-19T07:55:39;98613.69;;;26.83;41.52
13124;BME280;6627;50.920;12.050;2023-09-19T07:58:07;98642.66;;;26.82;41.96
13124;BME280;6627;50.920;12.050;2023-09-19T08:00:34;98643.81;;;26.88;41.79
13124;BME280;6627;50.920;12.050;2023-09-19T08:03:03;98659.47;;;27.13;41.38
13124;BME280;6627;50.920;12.050;2023-09-19T08:05:32;98674.34;;;27.33;41.04
13124;BME280;6627;50.920;12.050;2023-09-19T08:07:59;98654.75;;;27.10;41.43
13124;BME280;6627;50.920;12.050;2023-09-19T08:10:32;98630.50;;;27.07;41.18
13124;BME280;6627;50.920;12.050;2023-09-19T08:13:01;98636.44;;;27.12;41.07
13124;BME280;6627;50.920;12.050;2023-09-19T08:15:29;98545.44;;;26.45;40.93
13124;BME280;6627;50.920;12.050;2023-09-19T08:18:00;98622.94;;;27.11;40.69
13124;BME280;6627;50.920;12.050;2023-09-19T08:20:29;98626.09;;;26.75;41.33
13124;BME280;6627;50.920;12.050;2023-09-19T08:22:59;98634.63;;;26.91;40.94
13124;BME280;6627;50.920;12.050;2023-09-19T08:25:26;98562.78;;;26.07;41.92
13124;BME280;6627;50.920;12.050;2023-09-19T08:27:55;98653.97;;;27.06;40.70
13124;BME280;6627;50.920;12.050;2023-09-19T08:30:24;98637.38;;;27.33;40.19
13124;BME280;6627;50.920;12.050;2023-09-19T08:32:57;98613.16;;;26.96;40.95
13124;BME280;6627;50.920;12.050;2023-09-19T08:35:25;98665.41;;;27.15;40.98
13124;BME280;6627;50.920;12.050;2023-09-19T08:37:54;98606.09;;;26.50;41.62
13124;BME280;6627;50.920;12.050;2023-09-19T08:40:27;98669.88;;;27.02;41.20
13124;BME280;6627;50.920;12.050;2023-09-19T08:42:56;98569.31;;;25.83;42.34
13124;BME280;6627;50.920;12.050;2023-09-19T08:45:26;98587.09;;;26.45;41.28
13124;BME280;6627;50.920;12.050;2023-09-19T08:48:06;98643.94;;;27.50;39.84
13124;BME280;6627;50.920;12.050;2023-09-19T08:50:51;98620.06;;;27.18;40.02
13124;BME280;6627;50.920;12.050;2023-09-19T08:53:36;98582.34;;;27.17;39.32
13124;BME280;6627;50.920;12.050;2023-09-19T08:56:10;98582.75;;;26.81;39.88
13124;BME280;6627;50.920;12.050;2023-09-19T08:58:44;98639.13;;;27.54;39.08
13124;BME280;6627;50.920;12.050;2023-09-19T09:01:15;98658.97;;;27.86;39.08
13124;BME280;6627;50.920;12.050;2023-09-19T09:03:44;98657.22;;;28.23;38.57
13124;BME280;6627;50.920;12.050;2023-09-19T09:06:14;98533.94;;;27.72;38.00
13124;BME280;6627;50.920;12.050;2023-09-19T09:08:44;98591.53;;;27.75;38.78
13124;BME280;6627;50.920;12.050;2023-09-19T09:11:14;98593.94;;;28.00;38.15
13124;BME280;6627;50.920;12.050;2023-09-19T09:13:44;98574.25;;;27.87;38.36
13124;BME280;6627;50.920;12.050;2023-09-19T09:16:13;98526.22;;;27.53;38.45
13124;BME280;6627;50.920;12.050;2023-09-19T09:18:44;98581.56;;;27.78;38.59
13124;BME280;6627;50.920;12.050;2023-09-19T09:21:11;98512.19;;;27.36;38.26
13124;BME280;6627;50.920;12.050;2023-09-19T09:23:43;98512.34;;;26.91;39.16
13124;BME280;6627;50.920;12.050;2023-09-19T09:26:12;98505.28;;;27.17;38.42
13124;BME280;6627;50.920;12.050;2023-09-19T09:28:46;98503.88;;;26.68;39.35
13124;BME280;6627;50.920;12.050;2023-09-19T09:31:22;98530.44;;;27.37;38.19
13124;BME280;6627;50.920;12.050;2023-09-19T09:33:53;98501.13;;;26.68;39.18
13124;BME280;6627;50.920;12.050;2023-09-19T09:36:34;98545.53;;;27.06;39.20
13124;BME280;6627;50.920;12.050;2023-09-19T09:39:04;98465.81;;;26.65;38.44
13124;BME280;6627;50.920;12.050;2023-09-19T09:41:45;98501.03;;;26.75;38.88
13124;BME280;6627;50.920;12.050;2023-09-19T09:44:15;98543.88;;;27.12;38.52
13124;BME280;6627;50.920;12.050;2023-09-19T09:46:45;98537.78;;;27.24;38.03
13124;BME280;6627;50.920;12.050;2023-09-19T09:49:48;98606.56;;;27.81;37.74
13124;BME280;6627;50.920;12.050;2023-09-19T09:52:44;98585.38;;;27.87;37.41
13124;BME280;6627;50.920;12.050;2023-09-19T09:55:15;98507.72;;;27.42;37.18
13124;BME280;6627;50.920;12.050;2023-09-19T09:57:45;98540.91;;;27.84;37.30
13124;BME280;6627;50.920;12.050;2023-09-19T10:00:14;98518.09;;;27.65;37.43
13124;BME280;6627;50.920;12.050;2023-09-19T10:02:47;98584.41;;;28.25;37.05
13124;BME280;6627;50.920;12.050;2023-09-19T10:05:17;98574.59;;;28.16;37.17
13124;BME280;6627;50.920;12.050;2023-09-19T10:07:49;98478.88;;;27.83;36.78
13124;BME280;6627;50.920;12.050;2023-09-19T10:10:32;98618.28;;;28.70;36.69
13124;BME280;6627;50.920;12.050;2023-09-19T10:13:20;98465.66;;;27.64;37.26
13124;BME280;6627;50.920;12.050;2023-09-19T10:15:51;98543.03;;;27.76;38.04
13124;BME280;6627;50.920;12.050;2023-09-19T10:18:24;98537.38;;;27.53;38.55
13124;BME280;6627;50.920;12.050;2023-09-19T10:20:54;98548.44;;;27.56;38.29
13124;BME280;6627;50.920;12.050;2023-09-19T10:23:22;98553.78;;;27.98;37.54
13124;BME280;6627;50.920;12.050;2023-09-19T10:25:54;98581.47;;;28.35;36.79
13124;BME280;6627;50.920;12.050;2023-09-19T10:28:21;98513.25;;;28.63;35.45
13124;BME280;6627;50.920;12.050;2023-09-19T10:30:51;98494.84;;;28.26;35.79
13124;BME280;6627;50.920;12.050;2023-09-19T10:33:21;98521.06;;;28.72;35.03
13124;BME280;6627;50.920;12.050;2023-09-19T10:35:50;98355.69;;;28.59;32.57
13124;BME280;6627;50.920;12.050;2023-09-19T10:38:21;98186.56;;;27.27;33.09
13124;BME280;6627;50.920;12.050;2023-09-19T10:40:54;98287.44;;;28.11;32.37
13124;BME280;6627;50.920;12.050;2023-09-19T10:43:29;98305.56;;;28.75;31.43
13124;BME280;6627;50.920;12.050;2023-09-19T10:46:01;98202.03;;;28.24;31.80
13124;BME280;6627;50.920;12.050;2023-09-19T10:48:30;98214.75;;;28.25;31.72
13124;BME280;6627;50.920;12.050;2023-09-19T10:51:06;98190.19;;;27.84;32.57
13124;BME280;6627;50.920;12.050;2023-09-19T10:53:47;98225.78;;;28.29;31.69
13124;BME280;6627;50.920;12.050;2023-09-19T10:56:24;98180.78;;;28.14;31.35
13124;BME280;6627;50.920;12.050;2023-09-19T10:59:06;98141.13;;;27.74;31.45
13124;BME280;6627;50.920;12.050;2023-09-19T11:01:45;98108.81;;;27.20;31.70
13124;BME280;6627;50.920;12.050;2023-09-19T11:04:28;98170.50;;;27.75;31.39
13124;BME280;6627;50.920;12.050;2023-09-19T11:07:04;98236.59;;;28.47;30.96
13124;BME280;6627;50.920;12.050;2023-09-19T11:09:48;98277.72;;;28.91;30.87
13124;BME280;6627;50.920;12.050;2023-09-19T11:12:54;98269.16;;;28.66;31.56
13124;BME280;6627;50.920;12.050;2023-09-19T11:16:12;98160.06;;;28.15;30.93
13124;BME280;6627;50.920;12.050;2023-09-19T11:18:55;98307.94;;;29.26;30.81
13124;BME280;6627;50.920;12.050;2023-09-19T11:21:57;98292.16;;;28.86;31.64
13124;BME280;6627;50.920;12.050;2023-09-19T11:24:32;98164.88;;;27.78;32.13
13124;BME280;6627;50.920;12.050;2023-09-19T11:27:14;98237.44;;;28.44;32.16
13124;BME280;6627;50.920;12.050;2023-09-19T11:29:45;98295.44;;;28.49;32.56
13124;BME280;6627;50.920;12.050;2023-09-19T11:32:14;98341.09;;;29.24;31.74
13124;BME280;6627;50.920;12.050;2023-09-19T11:35:07;98358.41;;;29.48;31.87
13124;BME280;6627;50.920;12.050;2023-09-19T11:37:59;98257.41;;;29.07;31.35
13124;BME280;6627;50.920;12.050;2023-09-19T11:40:37;98251.91;;;28.71;31.66
13124;BME280;6627;50.920;12.050;2023-09-19T11:43:31;98300.56;;;29.19;31.56
13124;BME280;6627;50.920;12.050;2023-09-19T11:46:08;98208.34;;;28.45;32.12
13124;BME280;6627;50.920;12.050;2023-09-19T11:48:38;98217.25;;;28.20;32.65
13124;BME280;6627;50.920;12.050;2023-09-19T11:51:18;98200.28;;;28.14;32.73
13124;BME280;6627;50.920;12.050;2023-09-19T11:53:50;98244.06;;;28.66;32.15
13124;BME280;6627;50.920;12.050;2023-09-19T11:56:19;98294.94;;;28.86;31.92
13124;BME280;6627;50.920;12.050;2023-09-19T11:58:50;98115.47;;;27.62;31.94
13124;BME280;6627;50.920;12.050;2023-09-19T12:01:25;98190.16;;;28.04;32.06
13124;BME280;6627;50.920;12.050;2023-09-19T12:03:56;98325.31;;;29.17;31.39
13124;BME280;6627;50.920;12.050;2023-09-19T12:06:26;98248.25;;;29.23;30.65
13124;BME280;6627;50.920;12.050;2023-09-19T12:08:56;98216.13;;;29.02;30.76
13124;BME280;6627;50.920;12.050;2023-09-19T12:11:30;98261.81;;;29.37;30.86
13124;BME280;6627;50.920;12.050;2023-09-19T12:14:01;98172.66;;;28.39;31.61
13124;BME280;6627;50.920;12.050;2023-09-19T12:16:31;98278.16;;;29.68;30.15
13124;BME280;6627;50.920;12.050;2023-09-19T12:19:18;98276.47;;;29.41;30.65
13124;BME280;6627;50.920;12.050;2023-09-19T12:21:55;98221.84;;;29.11;30.90
13124;BME280;6627;50.920;12.050;2023-09-19T12:24:25;98142.53;;;28.51;30.83
13124;BME280;6627;50.920;12.050;2023-09-19T12:26:53;98138.00;;;28.40;30.81
13124;BME280;6627;50.920;12.050;2023-09-19T12:29:26;98109.59;;;28.13;30.68
13124;BME280;6627;50.920;12.050;2023-09-19T12:31:56;98117.72;;;28.56;30.00
13124;BME280;6627;50.920;12.050;2023-09-19T12:34:27;98116.06;;;28.59;30.33
13124;BME280;6627;50.920;12.050;2023-09-19T12:37:06;98167.44;;;28.74;30.34
13124;BME280;6627;50.920;12.050;2023-09-19T12:39:40;98205.84;;;28.83;30.76
13124;BME280;6627;50.920;12.050;2023-09-19T12:42:19;98112.41;;;28.29;30.85
13124;BME280;6627;50.920;12.050;2023-09-19T12:44:50;98147.94;;;28.58;30.51
13124;BME280;6627;50.920;12.050;2023-09-19T12:47:24;98178.28;;;28.85;30.43
13124;BME280;6627;50.920;12.050;2023-09-19T12:50:11;98177.00;;;29.06;30.28
13124;BME280;6627;50.920;12.050;2023-09-19T12:52:47;98269.13;;;29.48;30.29
13124;BME280;6627;50.920;12.050;2023-09-19T12:55:25;98208.34;;;28.94;30.84
13124;BME280;6627;50.920;12.050;2023-09-19T12:58:09;98173.19;;;28.67;31.08
13124;BME280;6627;50.920;12.050;2023-09-19T13:00:42;98213.22;;;29.22;30.39
13124;BME280;6627;50.920;12.050;2023-09-19T13:03:16;98154.19;;;28.62;30.84
13124;BME280;6627;50.920;12.050;2023-09-19T13:05:51;98173.78;;;28.75;30.74
13124;BME280;6627;50.920;12.050;2023-09-19T13:08:25;98138.19;;;28.66;30.70
13124;BME280;6627;50.920;12.050;2023-09-19T13:11:11;98131.72;;;28.20;31.39
13124;BME280;6627;50.920;12.050;2023-09-19T13:13:43;98119.38;;;28.21;30.95
13124;BME280;6627;50.920;12.050;2023-09-19T13:16:14;98146.88;;;28.68;30.55
13124;BME280;6627;50.920;12.050;2023-09-19T13:18:49;98167.22;;;29.14;30.05
13124;BME280;6627;50.920;12.050;2023-09-19T13:21:28;98191.13;;;28.99;30.34
13124;BME280;6627;50.920;12.050;2023-09-19T13:24:21;98184.75;;;28.98;30.40
13124;BME280;6627;50.920;12.050;2023-09-19T13:26:49;98177.88;;;29.03;30.24